Time;durP1;ratioP1;P1;durP2;ratioP2;P2;SDS_P1;SDS_P2;PMS_P1;PMS_P2;Temp;Humidity;BMP_temperature;BMP_pressure;BME280_temperature;BME280_humidity;BME280_pressure;Samples;Min_cycle;Max_cycle;Signal;HPM_P1;HPM_P2
2021/03/08 00:00:49;;;;;;;10.47;8.57;;;3.20;83.60;;;;;;5077110;28;20206;-49
2021/03/08 00:03:16;;;;;;;11.17;8.87;;;3.10;84.10;;;;;;5077209;28;20502;-47
2021/03/08 00:05:42;;;;;;;10.77;8.83;;;3.00;84.10;;;;;;5077232;28;20424;-52
2021/03/08 00:08:08;;;;;;;11.10;8.57;;;2.90;84.60;;;;;;5077546;28;20923;-49
2021/03/08 00:10:34;;;;;;;11.00;8.77;;;2.90;85.30;;;;;;5077360;28;20440;-47
2021/03/08 00:13:00;;;;;;;10.17;8.10;;;2.80;85.60;;;;;;5077199;28;20462;-47
2021/03/08 00:15:26;;;;;;;11.37;8.63;;;2.70;86.00;;;;;;5077783;28;20191;-55
2021/03/08 00:17:52;;;;;;;11.70;9.00;;;2.70;86.50;;;;;;5077249;28;20177;-52
2021/03/08 00:20:23;;;;;;;12.37;8.80;;;2.60;86.50;;;;;;5076903;28;20181;-53
2021/03/08 00:22:49;;;;;;;11.93;9.20;;;2.60;87.00;;;;;;5076685;28;20417;-55
2021/03/08 00:25:20;;;;;;;10.20;8.03;;;2.60;86.40;;;;;;5076686;28;20478;-49
2021/03/08 00:27:46;;;;;;;10.97;8.93;;;2.60;86.40;;;;;;5076958;28;20166;-52
2021/03/08 00:30:12;;;;;;;11.57;8.90;;;2.70;86.80;;;;;;5077540;28;20699;-47
2021/03/08 00:32:38;;;;;;;11.40;8.90;;;2.70;86.90;;;;;;5076726;28;20167;-49
2021/03/08 00:35:06;;;;;;;11.27;8.50;;;2.70;86.90;;;;;;5076421;28;20515;-48
2021/03/08 00:37:32;;;;;;;12.47;8.43;;;2.70;86.40;;;;;;5077069;28;20601;-51
2021/03/08 00:40:09;;;;;;;11.57;8.83;;;2.60;86.80;;;;;;5077065;28;20493;-52
2021/03/08 00:42:35;;;;;;;11.63;8.40;;;2.60;87.60;;;;;;5076751;28;20205;-52
2021/03/08 00:45:04;;;;;;;10.80;8.67;;;2.50;87.50;;;;;;5076287;28;20432;-51
2021/03/08 00:47:29;;;;;;;10.97;8.67;;;2.50;87.90;;;;;;5076663;28;20198;-53
2021/03/08 00:49:55;;;;;;;10.37;8.67;;;2.40;88.40;;;;;;5077156;28;20733;-50
2021/03/08 00:52:20;;;;;;;11.97;9.40;;;2.30;88.80;;;;;;5076435;28;20537;-47
2021/03/08 00:54:46;;;;;;;10.73;8.07;;;2.20;90.20;;;;;;5076083;28;20716;-53
2021/03/08 00:57:11;;;;;;;10.47;8.27;;;2.20;89.80;;;;;;5076589;28;20311;-50
2021/03/08 00:59:37;;;;;;;10.50;8.57;;;2.20;89.20;;;;;;5076684;28;20171;-47
2021/03/08 01:02:04;;;;;;;10.47;8.07;;;2.20;89.40;;;;;;5076083;28;20678;-51
2021/03/08 01:04:29;;;;;;;10.27;8.13;;;2.20;89.80;;;;;;5076083;28;20162;-52
2021/03/08 01:06:55;;;;;;;8.77;7.43;;;2.20;89.70;;;;;;5074912;28;20417;-50
2021/03/08 01:09:20;;;;;;;10.70;7.97;;;2.10;90.00;;;;;;5075906;28;20312;-56
2021/03/08 01:11:47;;;;;;;10.40;8.47;;;2.10;90.20;;;;;;5075680;28;20526;-56
2021/03/08 01:14:12;;;;;;;9.50;7.90;;;2.10;90.10;;;;;;5076047;28;20174;-52
2021/03/08 01:16:38;;;;;;;11.37;8.80;;;2.10;90.40;;;;;;5076423;28;20779;-51
2021/03/08 01:19:04;;;;;;;11.37;8.23;;;1.90;91.00;;;;;;5076403;28;20183;-47
2021/03/08 01:21:31;;;;;;;11.47;8.77;;;1.70;91.60;;;;;;5075881;28;20190;-52
2021/03/08 01:23:56;;;;;;;10.70;8.33;;;1.70;91.90;;;;;;5076109;28;20468;-47
2021/03/08 01:26:22;;;;;;;9.83;7.93;;;1.80;91.50;;;;;;5075913;28;20424;-52
2021/03/08 01:28:48;;;;;;;9.53;7.43;;;1.90;91.50;;;;;;5075975;28;20496;-47
2021/03/08 01:31:13;;;;;;;10.47;8.67;;;1.90;91.30;;;;;;5075647;28;20189;-54
2021/03/08 01:33:39;;;;;;;10.40;8.20;;;2.00;91.00;;;;;;5075444;28;20174;-49
2021/03/08 01:36:05;;;;;;;11.27;8.90;;;2.00;91.10;;;;;;5075336;28;20194;-50
2021/03/08 01:38:30;;;;;;;11.00;8.67;;;2.10;91.60;;;;;;5075819;28;20518;-47
2021/03/08 01:40:56;;;;;;;10.50;8.63;;;2.10;91.60;;;;;;5074996;28;20266;-51
2021/03/08 01:43:23;;;;;;;11.53;8.70;;;2.10;91.40;;;;;;5075487;28;20178;-48
2021/03/08 01:45:49;;;;;;;10.20;7.77;;;2.10;91.60;;;;;;5075404;28;20605;-56
2021/03/08 01:48:15;;;;;;;9.63;8.03;;;2.00;91.50;;;;;;5075554;28;20431;-55
2021/03/08 01:50:43;;;;;;;10.73;8.00;;;2.00;91.70;;;;;;5075050;28;20429;-52
2021/03/08 01:53:13;;;;;;;9.53;7.83;;;1.90;91.70;;;;;;5074871;28;20594;-54
2021/03/08 01:55:38;;;;;;;9.63;7.33;;;2.00;91.60;;;;;;5075492;28;20936;-51
2021/03/08 01:58:04;;;;;;;9.27;7.67;;;1.90;91.50;;;;;;5075150;28;20478;-53
2021/03/08 02:00:32;;;;;;;9.77;7.53;;;1.90;91.70;;;;;;5075152;28;20166;-56
2021/03/08 02:02:58;;;;;;;8.87;7.57;;;1.90;91.60;;;;;;5075008;28;20170;-55
2021/03/08 02:05:27;;;;;;;9.97;7.40;;;1.80;91.70;;;;;;5074568;28;20424;-53
2021/03/08 02:07:53;;;;;;;9.77;7.67;;;1.90;91.70;;;;;;5075639;28;20829;-47
2021/03/08 02:10:19;;;;;;;9.47;7.33;;;1.80;91.40;;;;;;5074955;28;20523;-49
2021/03/08 02:12:48;;;;;;;9.97;7.07;;;1.80;91.30;;;;;;5075173;28;20409;-48
2021/03/08 02:15:40;;;;;;;10.17;8.50;;;1.80;91.50;;;;;;5074757;28;20827;-52
2021/03/08 02:18:15;;;;;;;11.23;8.93;;;1.60;92.40;;;;;;5075228;28;20865;-50
2021/03/08 02:20:54;;;;;;;10.87;8.10;;;1.60;92.50;;;;;;5075284;28;20489;-54
2021/03/08 02:23:49;;;;;;;12.10;7.83;;;1.60;92.40;;;;;;5074749;28;20526;-54
2021/03/08 02:26:27;;;;;;;11.87;7.90;;;1.60;92.50;;;;;;5074488;28;20466;-47
2021/03/08 02:29:23;;;;;;;9.20;7.43;;;1.50;92.40;;;;;;5075062;28;20400;-47
2021/03/08 02:31:51;;;;;;;9.23;7.20;;;1.50;92.00;;;;;;5074175;28;20495;-52
2021/03/08 02:34:26;;;;;;;11.17;7.23;;;1.50;92.10;;;;;;5093896;28;20408;-50
2021/03/08 02:37:00;;;;;;;9.97;7.90;;;1.50;92.30;;;;;;5095019;28;20705;-56
2021/03/08 02:39:31;;;;;;;11.03;7.93;;;1.50;92.30;;;;;;5094827;28;20404;-52
2021/03/08 02:41:59;;;;;;;9.80;7.67;;;1.30;92.90;;;;;;5094240;28;20450;-51
2021/03/08 02:44:30;;;;;;;10.00;7.70;;;1.30;93.30;;;;;;5094520;28;20404;-47
2021/03/08 02:46:57;;;;;;;9.70;7.33;;;1.20;93.30;;;;;;5094788;28;20778;-50
2021/03/08 02:49:27;;;;;;;9.73;7.60;;;1.10;93.30;;;;;;5094697;28;20400;-52
2021/03/08 02:51:57;;;;;;;9.60;7.50;;;1.20;93.10;;;;;;5094493;28;20435;-47
2021/03/08 02:54:25;;;;;;;11.80;8.10;;;1.20;93.10;;;;;;5094569;28;20396;-50
2021/03/08 02:56:55;;;;;;;12.47;8.23;;;1.20;93.10;;;;;;5094543;28;20447;-47
2021/03/08 02:59:22;;;;;;;10.47;7.47;;;1.10;93.20;;;;;;5093006;28;20930;-53
2021/03/08 03:01:50;;;;;;;11.30;7.67;;;1.00;93.60;;;;;;5092774;28;20452;-52
2021/03/08 03:04:19;;;;;;;9.17;7.10;;;0.90;94.10;;;;;;5094002;28;20404;-52
2021/03/08 03:06:46;;;;;;;9.60;6.53;;;0.90;94.10;;;;;;5094030;28;20449;-56
2021/03/08 03:09:15;;;;;;;10.10;7.37;;;1.00;93.70;;;;;;5094191;28;20416;-50
2021/03/08 03:11:43;;;;;;;10.80;7.87;;;1.00;93.40;;;;;;5094176;28;20411;-48
2021/03/08 03:14:11;;;;;;;9.57;7.20;;;0.90;94.10;;;;;;5094473;28;20883;-48
2021/03/08 03:16:39;;;;;;;11.47;7.00;;;0.80;96.10;;;;;;5094280;28;20427;-54
2021/03/08 03:19:06;;;;;;;9.60;7.50;;;0.80;95.70;;;;;;5094416;28;20508;-55
2021/03/08 03:21:33;;;;;;;10.20;7.33;;;0.80;94.90;;;;;;5093507;28;20427;-53
2021/03/08 03:24:01;;;;;;;10.70;7.57;;;0.80;94.60;;;;;;5094376;28;20778;-54
2021/03/08 03:26:29;;;;;;;9.43;8.00;;;0.90;94.70;;;;;;5094493;28;20520;-52
2021/03/08 03:28:55;;;;;;;11.13;8.60;;;0.90;94.80;;;;;;5093918;28;20503;-52
2021/03/08 03:31:22;;;;;;;10.33;8.60;;;0.90;95.30;;;;;;5094066;28;20455;-56
2021/03/08 03:33:48;;;;;;;11.87;9.40;;;0.90;95.90;;;;;;5094297;28;20490;-51
2021/03/08 03:36:15;;;;;;;10.67;8.70;;;0.90;97.20;;;;;;5093741;28;20459;-48
2021/03/08 03:38:41;;;;;;;11.37;8.60;;;0.90;97.70;;;;;;5093511;28;20424;-55
2021/03/08 03:41:07;;;;;;;9.83;8.50;;;0.90;98.70;;;;;;5093789;28;20547;-56
2021/03/08 03:43:33;;;;;;;12.03;9.10;;;0.90;98.30;;;;;;5093974;28;20408;-56
2021/03/08 03:46:02;;;;;;;12.53;9.40;;;0.80;97.80;;;;;;5093685;28;20424;-53
2021/03/08 03:48:29;;;;;;;10.30;8.27;;;0.80;98.70;;;;;;5094211;28;20185;-47
2021/03/08 03:50:55;;;;;;;10.33;8.30;;;0.80;98.20;;;;;;5093317;28;20478;-51
2021/03/08 03:53:20;;;;;;;10.53;7.07;;;0.80;97.70;;;;;;5093773;28;20409;-48
2021/03/08 03:55:46;;;;;;;8.63;7.03;;;0.90;97.30;;;;;;5093559;28;20196;-52
2021/03/08 03:58:25;;;;;;;12.37;7.50;;;0.90;96.90;;;;;;5092885;28;20540;-57
2021/03/08 04:01:15;;;;;;;10.40;7.20;;;0.90;96.50;;;;;;5094258;28;20523;-47
2021/03/08 04:04:01;;;;;;;10.47;7.90;;;0.90;95.80;;;;;;5093608;28;20396;-47
2021/03/08 04:06:32;;;;;;;13.00;8.07;;;0.90;95.30;;;;;;5093398;28;20496;-48
2021/03/08 04:08:58;;;;;;;8.87;7.57;;;0.80;95.30;;;;;;5093837;28;20412;-47
2021/03/08 04:11:29;;;;;;;10.37;7.53;;;0.60;95.60;;;;;;5093885;28;20455;-51
2021/03/08 04:13:57;;;;;;;9.83;8.07;;;0.60;96.20;;;;;;5093705;28;20408;-52
2021/03/08 04:16:23;;;;;;;9.63;7.20;;;0.50;96.90;;;;;;5093573;28;20506;-50
2021/03/08 04:18:52;;;;;;;10.00;7.80;;;0.50;97.30;;;;;;5093552;28;20412;-50
2021/03/08 04:21:18;;;;;;;11.77;7.23;;;0.50;97.30;;;;;;5093631;28;20756;-53
2021/03/08 04:23:44;;;;;;;11.87;8.30;;;0.60;97.40;;;;;;5094262;28;20443;-48
2021/03/08 04:26:11;;;;;;;11.33;8.03;;;0.70;97.10;;;;;;5093278;28;20435;-51
2021/03/08 04:28:37;;;;;;;9.17;7.47;;;0.70;97.10;;;;;;5095990;28;20486;-55
2021/03/08 04:31:04;;;;;;;12.77;8.93;;;0.70;96.70;;;;;;5096782;28;20456;-54
2021/03/08 04:33:31;;;;;;;9.70;7.80;;;0.50;97.30;;;;;;5097791;28;20408;-51
2021/03/08 04:35:58;;;;;;;10.67;6.97;;;0.40;98.20;;;;;;5097276;28;20439;-47
2021/03/08 04:38:26;;;;;;;11.47;8.27;;;0.40;97.90;;;;;;5097655;28;20730;-54
2021/03/08 04:40:53;;;;;;;11.07;8.33;;;0.40;99.60;;;;;;5097593;28;20864;-52
2021/03/08 04:43:18;;;;;;;10.83;8.10;;;0.40;98.90;;;;;;5096809;28;20908;-55
2021/03/08 04:45:44;;;;;;;11.23;8.53;;;0.30;98.20;;;;;;5097086;28;20434;-52
2021/03/08 04:48:10;;;;;;;11.67;7.67;;;0.40;98.20;;;;;;5096807;28;20174;-53
2021/03/08 04:50:36;;;;;;;9.77;8.23;;;0.40;98.20;;;;;;5097479;28;20615;-47
2021/03/08 04:53:03;;;;;;;10.20;8.63;;;0.50;97.80;;;;;;5096477;28;20404;-56
2021/03/08 04:55:30;;;;;;;10.50;8.17;;;0.40;97.60;;;;;;5097024;28;20451;-49
2021/03/08 04:57:56;;;;;;;12.53;8.37;;;0.30;97.30;;;;;;5095589;28;20424;-47
2021/03/08 05:00:23;;;;;;;10.60;7.43;;;0.30;97.50;;;;;;5096385;28;20407;-51
2021/03/08 05:02:53;;;;;;;10.00;8.00;;;0.30;97.60;;;;;;5095929;28;20505;-52
2021/03/08 05:05:22;;;;;;;12.10;8.27;;;0.30;97.40;;;;;;5096447;28;20974;-51
2021/03/08 05:07:48;;;;;;;10.17;7.93;;;0.30;97.40;;;;;;5096514;28;20416;-48
2021/03/08 05:10:19;;;;;;;10.70;8.17;;;0.30;97.60;;;;;;5096337;28;20564;-53
2021/03/08 05:12:47;;;;;;;11.70;8.43;;;0.20;98.30;;;;;;5096203;28;20443;-48
2021/03/08 05:15:14;;;;;;;10.30;7.97;;;0.20;98.20;;;;;;5096667;28;20428;-54
2021/03/08 05:17:41;;;;;;;13.10;9.07;;;0.10;98.60;;;;;;5096386;28;20416;-52
2021/03/08 05:20:15;;;;;;;9.90;8.30;;;0.10;98.60;;;;;;5096148;28;20465;-47
2021/03/08 05:22:42;;;;;;;11.47;9.07;;;0.10;99.30;;;;;;5096155;28;20496;-51
2021/03/08 05:25:10;;;;;;;12.93;9.80;;;0.10;99.90;;;;;;5095971;28;20477;-55
2021/03/08 05:27:37;;;;;;;13.57;10.63;;;0.10;99.90;;;;;;5087093;28;20774;-49
2021/03/08 05:30:05;;;;;;;17.77;13.53;;;0.20;99.90;;;;;;5084595;28;20943;-51
2021/03/08 05:32:41;;;;;;;17.90;13.93;;;0.10;99.90;;;;;;5090167;28;20464;-54
2021/03/08 05:35:08;;;;;;;14.10;11.07;;;0.00;99.90;;;;;;5095871;28;20423;-51
2021/03/08 05:37:35;;;;;;;15.50;11.37;;;0.10;99.90;;;;;;5095849;28;20549;-52
2021/03/08 05:40:04;;;;;;;15.83;11.73;;;0.00;99.90;;;;;;5094991;28;20887;-54
2021/03/08 05:42:35;;;;;;;14.33;11.60;;;0.00;99.90;;;;;;5095599;28;20465;-50
2021/03/08 05:45:09;;;;;;;14.27;11.30;;;0.00;99.90;;;;;;5094735;28;20456;-50
2021/03/08 05:48:05;;;;;;;15.07;11.83;;;0.00;99.90;;;;;;5094398;28;20483;-55
2021/03/08 05:50:50;;;;;;;15.27;11.70;;;0.10;99.90;;;;;;5092174;28;20552;-47
2021/03/08 05:53:27;;;;;;;14.43;11.43;;;0.20;99.90;;;;;;5095197;28;20454;-51
2021/03/08 05:56:07;;;;;;;15.50;12.10;;;0.20;99.90;;;;;;5095425;28;20427;-47
2021/03/08 05:58:52;;;;;;;14.47;11.70;;;0.30;99.90;;;;;;5094898;28;20427;-52
2021/03/08 06:01:58;;;;;;;14.50;12.07;;;0.30;99.90;;;;;;5093041;28;20480;-55
2021/03/08 06:04:26;;;;;;;15.27;11.63;;;0.20;99.90;;;;;;5087017;28;20418;-50
2021/03/08 06:07:00;;;;;;;16.90;12.90;;;0.30;99.90;;;;;;5087827;28;20840;-50
2021/03/08 06:09:45;;;;;;;13.77;11.23;;;0.40;99.90;;;;;;5086142;28;20566;-47
2021/03/08 06:12:15;;;;;;;15.70;12.33;;;0.50;99.90;;;;;;5081256;28;20460;-53
2021/03/08 06:14:49;;;;;;;15.47;11.93;;;0.50;99.90;;;;;;5074529;28;20425;-51
2021/03/08 06:17:18;;;;;;;15.03;11.93;;;0.60;99.90;;;;;;5075374;28;20417;-52
2021/03/08 06:19:45;;;;;;;13.90;11.23;;;0.70;99.90;;;;;;5081814;28;20433;-55
2021/03/08 06:22:15;;;;;;;16.30;13.13;;;0.70;99.90;;;;;;5083507;28;20518;-53
2021/03/08 06:24:43;;;;;;;16.07;13.07;;;0.80;99.90;;;;;;5090366;28;20425;-53
2021/03/08 06:27:13;;;;;;;16.83;13.57;;;0.80;99.90;;;;;;5073403;28;20738;-47
2021/03/08 06:29:40;;;;;;;15.43;12.60;;;0.80;99.90;;;;;;5077376;28;20462;-55
2021/03/08 06:32:07;;;;;;;15.30;11.80;;;0.90;99.90;;;;;;5094283;28;20478;-47
2021/03/08 06:34:33;;;;;;;15.40;12.17;;;1.00;99.90;;;;;;5092680;28;20432;-52
2021/03/08 06:37:09;;;;;;;17.77;12.73;;;1.10;99.90;;;;;;5094315;28;20423;-55
2021/03/08 06:39:37;;;;;;;15.17;12.33;;;1.20;99.90;;;;;;5084907;28;20436;-48
2021/03/08 06:42:04;;;;;;;14.57;10.87;;;1.20;99.90;;;;;;5073611;28;20420;-52
2021/03/08 06:44:30;;;;;;;12.47;9.93;;;1.20;99.90;;;;;;5083150;28;20452;-51
2021/03/08 06:46:57;;;;;;;15.53;13.10;;;1.20;99.90;;;;;;5092193;28;20427;-51
2021/03/08 06:49:23;;;;;;;15.37;12.57;;;1.30;99.90;;;;;;5080187;28;20849;-50
2021/03/08 06:52:06;;;;;;;15.97;11.83;;;1.40;99.90;;;;;;5083310;28;20467;-48
2021/03/08 06:54:34;;;;;;;14.50;11.20;;;1.50;99.90;;;;;;5090488;28;20174;-48
2021/03/08 06:57:00;;;;;;;15.37;12.20;;;1.60;99.90;;;;;;5092587;28;20450;-47
2021/03/08 06:59:25;;;;;;;14.00;10.93;;;1.70;99.90;;;;;;5082068;28;20429;-47
2021/03/08 07:01:52;;;;;;;15.50;12.80;;;1.80;99.90;;;;;;5074063;28;20658;-52
2021/03/08 07:04:27;;;;;;;17.13;12.90;;;1.80;99.90;;;;;;5076634;28;20179;-47
2021/03/08 07:07:06;;;;;;;13.07;10.70;;;1.70;99.90;;;;;;5089361;28;20419;-48
2021/03/08 07:09:33;;;;;;;12.43;10.50;;;1.70;99.90;;;;;;5085550;28;20439;-55
2021/03/08 07:12:13;;;;;;;12.77;10.40;;;1.50;99.90;;;;;;5073901;28;20471;-54
2021/03/08 07:14:40;;;;;;;13.47;10.40;;;1.30;99.90;;;;;;5074681;28;20503;-52
2021/03/08 07:17:34;;;;;;;12.93;10.30;;;1.20;99.90;;;;;;5074106;28;20408;-49
2021/03/08 07:20:06;;;;;;;14.43;11.03;;;1.30;99.90;;;;;;5074672;28;20515;-52
2021/03/08 07:22:52;;;;;;;12.27;10.27;;;1.20;99.90;;;;;;5088807;28;20422;-48
2021/03/08 07:25:31;;;;;;;13.27;10.70;;;1.20;99.90;;;;;;5093710;28;20765;-48
2021/03/08 07:27:59;;;;;;;12.67;11.03;;;1.30;99.90;;;;;;5072481;28;20462;-49
2021/03/08 07:30:27;;;;;;;13.57;11.30;;;1.40;99.90;;;;;;5074789;28;20428;-52
2021/03/08 07:33:03;;;;;;;15.03;11.50;;;1.60;99.90;;;;;;5072794;28;20465;-48
2021/03/08 07:35:46;;;;;;;13.07;11.07;;;1.90;99.90;;;;;;5073223;28;20787;-48
2021/03/08 07:38:27;;;;;;;14.03;12.07;;;2.00;99.90;;;;;;5072959;28;20496;-48
2021/03/08 07:41:15;;;;;;;14.47;11.50;;;1.90;99.90;;;;;;5072689;28;20424;-55
2021/03/08 07:43:42;;;;;;;14.13;11.77;;;2.00;99.90;;;;;;5074031;28;20416;-50
2021/03/08 07:46:28;;;;;;;15.57;11.73;;;2.10;99.90;;;;;;5073674;28;20520;-50
2021/03/08 07:48:58;;;;;;;15.23;12.33;;;2.30;99.90;;;;;;5073821;28;20420;-52
2021/03/08 07:51:23;;;;;;;15.50;12.27;;;2.40;99.90;;;;;;5073541;28;20510;-47
2021/03/08 07:54:03;;;;;;;14.67;12.17;;;2.50;99.90;;;;;;5073413;28;20409;-48
2021/03/08 07:56:29;;;;;;;14.67;11.77;;;2.50;99.90;;;;;;5073826;28;20190;-49
2021/03/08 07:58:55;;;;;;;13.70;10.83;;;2.60;99.90;;;;;;5073681;28;20424;-48
2021/03/08 08:01:22;;;;;;;14.53;11.83;;;2.60;99.90;;;;;;5074213;28;20175;-53
2021/03/08 08:03:49;;;;;;;16.80;12.57;;;2.70;99.90;;;;;;5076173;28;20804;-49
2021/03/08 08:06:21;;;;;;;15.93;11.97;;;2.80;99.90;;;;;;5077481;28;20444;-47
2021/03/08 08:08:55;;;;;;;14.07;11.33;;;2.90;99.90;;;;;;5077329;28;20401;-51
2021/03/08 08:11:25;;;;;;;12.20;10.67;;;3.10;99.90;;;;;;5077116;28;20455;-51
2021/03/08 08:13:58;;;;;;;12.10;10.57;;;3.20;99.90;;;;;;5076832;28;20408;-50
2021/03/08 08:16:28;;;;;;;14.37;11.07;;;3.20;99.90;;;;;;5077126;28;20462;-50
2021/03/08 08:19:00;;;;;;;14.13;10.83;;;3.40;99.90;;;;;;5077572;28;20206;-47
2021/03/08 08:21:32;;;;;;;12.53;10.90;;;3.60;99.90;;;;;;5076364;28;20523;-53
2021/03/08 08:24:02;;;;;;;11.87;10.67;;;4.00;99.90;;;;;;5076675;28;20209;-50
2021/03/08 08:26:27;;;;;;;12.67;10.90;;;4.10;99.90;;;;;;5081040;28;20255;-49
2021/03/08 08:28:54;;;;;;;12.70;11.00;;;4.10;99.90;;;;;;5094050;28;20172;-49
2021/03/08 08:31:21;;;;;;;14.37;11.70;;;4.20;99.90;;;;;;5088123;28;20281;-53
2021/03/08 08:33:46;;;;;;;13.53;11.60;;;4.40;99.90;;;;;;5096093;28;20223;-50
2021/03/08 08:36:24;;;;;;;14.33;11.43;;;4.50;99.90;;;;;;5100107;28;20197;-50
2021/03/08 08:38:52;;;;;;;11.93;10.57;;;4.60;99.90;;;;;;5106014;28;20543;-53
2021/03/08 08:41:25;;;;;;;14.37;11.27;;;4.80;99.90;;;;;;5103473;28;20173;-48
2021/03/08 08:44:28;;;;;;;13.03;11.37;;;4.80;99.90;;;;;;5101868;28;20664;-49
2021/03/08 08:47:32;;;;;;;12.10;10.80;;;5.10;99.90;;;;;;5095444;28;20173;-50
2021/03/08 08:50:06;;;;;;;12.47;10.93;;;5.30;99.00;;;;;;5099235;28;20189;-50
2021/03/08 08:52:43;;;;;;;11.83;9.97;;;5.60;98.40;;;;;;5110065;28;20200;-49
2021/03/08 08:55:09;;;;;;;12.60;9.63;;;5.70;96.20;;;;;;5108146;28;20189;-50
2021/03/08 08:57:34;;;;;;;10.80;8.90;;;5.90;96.60;;;;;;5100389;28;20204;-49
2021/03/08 09:00:18;;;;;;;10.33;9.13;;;6.20;94.30;;;;;;5105464;28;20256;-55
2021/03/08 09:02:44;;;;;;;9.97;8.60;;;6.50;92.90;;;;;;5098094;28;20195;-50
2021/03/08 09:05:37;;;;;;;9.63;8.60;;;6.70;92.50;;;;;;5091611;28;20209;-55
2021/03/08 09:08:21;;;;;;;9.50;8.50;;;7.00;92.80;;;;;;5094997;28;20181;-53
2021/03/08 09:10:46;;;;;;;9.67;8.67;;;7.30;92.50;;;;;;5096141;28;20274;-50
2021/03/08 09:13:12;;;;;;;10.03;8.53;;;7.60;90.10;;;;;;5096334;28;20202;-52
2021/03/08 09:15:39;;;;;;;9.33;8.33;;;7.90;88.10;;;;;;5095472;28;20312;-48
2021/03/08 09:18:04;;;;;;;10.27;9.17;;;8.50;85.90;;;;;;5096489;28;20633;-48
2021/03/08 09:20:32;;;;;;;9.73;8.70;;;9.00;82.60;;;;;;5089619;28;20240;-50
2021/03/08 09:23:00;;;;;;;9.83;8.73;;;9.60;80.00;;;;;;5078209;28;20209;-56
2021/03/08 09:25:29;;;;;;;9.83;8.83;;;9.90;77.90;;;;;;5075327;28;20245;-54
2021/03/08 09:27:58;;;;;;;9.10;8.20;;;10.40;74.60;;;;;;5075653;28;20171;-50
2021/03/08 09:30:26;;;;;;;8.50;7.67;;;11.10;72.70;;;;;;5076529;28;20174;-51
2021/03/08 09:33:02;;;;;;;9.13;8.10;;;12.00;69.10;;;;;;5075455;28;20709;-48
2021/03/08 09:35:50;;;;;;;9.03;7.40;;;13.00;68.00;;;;;;5075880;28;20202;-50
2021/03/08 09:38:20;;;;;;;8.67;7.77;;;14.30;65.60;;;;;;5075448;28;20189;-51
2021/03/08 09:40:55;;;;;;;8.77;7.97;;;14.90;60.10;;;;;;5075348;28;20543;-51
2021/03/08 09:43:28;;;;;;;8.70;7.80;;;15.40;60.10;;;;;;5075915;28;20263;-48
2021/03/08 09:46:03;;;;;;;8.00;6.77;;;16.70;58.20;;;;;;5079273;28;20217;-52
2021/03/08 09:48:29;;;;;;;8.05;7.35;;;18.50;57.50;;;;;;5096311;28;20230;-54
2021/03/08 09:51:06;;;;;;;7.07;6.28;;;20.20;48.70;;;;;;5112464;28;20187;-49
2021/03/08 09:53:34;;;;;;;7.10;6.50;;;20.90;48.50;;;;;;5110832;28;20181;-56
2021/03/08 09:56:08;;;;;;;7.32;6.70;;;21.70;45.00;;;;;;5084571;28;20195;-51
2021/03/08 09:58:34;;;;;;;7.10;6.50;;;22.30;42.80;;;;;;5078178;28;20256;-57
2021/03/08 10:01:09;;;;;;;7.97;6.68;;;21.80;44.10;;;;;;5082897;28;20232;-50
2021/03/08 10:03:35;;;;;;;6.93;6.30;;;22.40;42.90;;;;;;5095512;28;20184;-51
2021/03/08 10:06:00;;;;;;;8.00;7.20;;;24.10;41.00;;;;;;5095397;28;20194;-51
2021/03/08 10:08:30;;;;;;;7.15;6.45;;;24.10;39.90;;;;;;5095237;28;20174;-51
2021/03/08 10:10:57;;;;;;;7.43;6.65;;;25.00;38.00;;;;;;5094902;28;20196;-55
2021/03/08 10:13:24;;;;;;;5.82;5.32;;;26.50;36.80;;;;;;5095171;28;20170;-57
2021/03/08 10:15:50;;;;;;;6.60;6.00;;;26.80;37.60;;;;;;5097820;28;20211;-52
2021/03/08 10:18:27;;;;;;;6.80;6.20;;;26.10;34.40;;;;;;5090063;28;20174;-50
2021/03/08 10:21:06;;;;;;;5.75;5.25;;;26.40;35.00;;;;;;5088722;28;20706;-54
2021/03/08 10:23:34;;;;;;;6.35;5.10;;;25.70;34.60;;;;;;5094254;28;20176;-50
2021/03/08 10:26:19;;;;;;;5.63;5.13;;;25.80;33.00;;;;;;5093588;28;20271;-57
2021/03/08 10:28:47;;;;;;;5.20;4.72;;;26.70;33.50;;;;;;5093540;28;20224;-50
2021/03/08 10:31:30;;;;;;;6.60;5.90;;;26.30;31.40;;;;;;5094526;28;20202;-57
2021/03/08 10:34:04;;;;;;;6.78;5.10;;;25.50;33.80;;;;;;5095340;28;20216;-53
2021/03/08 10:36:38;;;;;;;4.50;4.10;;;26.90;31.20;;;;;;5094192;28;20186;-54
2021/03/08 10:39:06;;;;;;;5.95;5.45;;;28.90;30.60;;;;;;5095072;28;20147;-50
2021/03/08 10:41:32;;;;;;;5.30;4.90;;;28.60;29.90;;;;;;5094856;28;20292;-55
2021/03/08 10:43:59;;;;;;;5.43;4.93;;;28.10;30.10;;;;;;5094793;28;20245;-52
2021/03/08 10:46:39;;;;;;;6.30;5.70;;;27.70;31.30;;;;;;5094876;28;20186;-55
2021/03/08 10:49:09;;;;;;;6.15;5.00;;;26.90;30.70;;;;;;5095571;28;20211;-56
2021/03/08 10:51:36;;;;;;;6.00;5.40;;;26.10;30.90;;;;;;5094249;28;20545;-50
2021/03/08 10:54:09;;;;;;;6.60;6.00;;;25.00;31.40;;;;;;5094821;28;20261;-49
2021/03/08 10:56:36;;;;;;;6.03;5.53;;;24.50;31.80;;;;;;5094264;28;20188;-51
2021/03/08 10:59:02;;;;;;;5.72;5.22;;;23.50;31.90;;;;;;5094370;28;20201;-51
2021/03/08 11:01:29;;;;;;;4.85;4.45;;;23.50;33.60;;;;;;5094620;28;20202;-53
2021/03/08 11:03:55;;;;;;;5.45;4.60;;;23.70;32.40;;;;;;5094300;28;20150;-55
2021/03/08 11:06:22;;;;;;;4.43;4.03;;;23.90;31.80;;;;;;5094310;28;20718;-57
2021/03/08 11:09:04;;;;;;;4.20;3.85;;;25.30;30.40;;;;;;5094018;28;20256;-54
2021/03/08 11:11:33;;;;;;;4.90;4.50;;;28.10;29.60;;;;;;5093983;28;20166;-55
2021/03/08 11:14:04;;;;;;;4.03;3.63;;;29.40;27.70;;;;;;5094904;28;20165;-52
2021/03/08 11:16:31;;;;;;;4.18;3.78;;;30.60;28.20;;;;;;5092017;28;20194;-58
2021/03/08 11:19:17;;;;;;;3.90;3.60;;;31.80;27.20;;;;;;5094224;28;20174;-56
2021/03/08 11:21:44;;;;;;;4.55;4.00;;;30.30;26.00;;;;;;5093784;28;20201;-55
2021/03/08 11:24:19;;;;;;;4.32;3.92;;;29.20;26.90;;;;;;5094675;28;20166;-56
2021/03/08 11:27:10;;;;;;;4.10;3.80;;;29.40;26.00;;;;;;5093837;28;20259;-54
2021/03/08 11:29:36;;;;;;;4.70;4.30;;;29.40;26.70;;;;;;5094180;28;20170;-49
2021/03/08 11:32:02;;;;;;;3.90;3.60;;;28.90;26.40;;;;;;5094349;28;20537;-54
2021/03/08 11:34:45;;;;;;;3.55;3.25;;;28.70;27.50;;;;;;5093658;28;20529;-56
2021/03/08 11:37:15;;;;;;;3.75;3.45;;;30.60;28.00;;;;;;5093508;28;20496;-56
2021/03/08 11:39:46;;;;;;;4.78;4.38;;;32.90;26.50;;;;;;5080898;28;20179;-56
2021/03/08 11:42:14;;;;;;;5.20;4.68;;;32.70;24.80;;;;;;5073927;28;20202;-49
2021/03/08 11:44:40;;;;;;;5.35;4.80;;;29.90;26.70;;;;;;5072252;28;20201;-49
2021/03/08 11:47:07;;;;;;;5.70;5.20;;;28.30;28.00;;;;;;5073463;28;20178;-52
2021/03/08 11:49:32;;;;;;;5.75;5.25;;;28.30;28.10;;;;;;5072723;28;20181;-55
2021/03/08 11:51:58;;;;;;;5.65;5.15;;;27.40;28.90;;;;;;5073490;28;20187;-52
2021/03/08 11:54:24;;;;;;;6.13;5.60;;;26.80;28.80;;;;;;5073586;28;20198;-56
2021/03/08 11:56:50;;;;;;;6.97;5.35;;;27.40;28.30;;;;;;5074019;28;20205;-55
2021/03/08 11:59:16;;;;;;;5.57;5.07;;;26.40;29.30;;;;;;5073861;28;20175;-52
2021/03/08 12:01:42;;;;;;;5.35;4.95;;;26.80;29.10;;;;;;5072994;28;20210;-53
2021/03/08 12:04:07;;;;;;;5.63;5.07;;;27.90;27.50;;;;;;5073279;28;20587;-51
2021/03/08 12:06:33;;;;;;;5.57;5.07;;;28.10;27.80;;;;;;5075551;28;20289;-54
2021/03/08 12:08:59;;;;;;;5.55;5.05;;;27.90;28.20;;;;;;5072913;28;20166;-57
2021/03/08 12:11:24;;;;;;;5.22;4.75;;;26.40;28.70;;;;;;5073304;28;20164;-53
2021/03/08 12:13:50;;;;;;;4.95;4.55;;;26.30;29.00;;;;;;5073753;28;20185;-58
2021/03/08 12:16:16;;;;;;;5.53;5.03;;;27.50;28.70;;;;;;5072957;28;20241;-51
2021/03/08 12:18:42;;;;;;;4.78;4.38;;;28.60;27.10;;;;;;5073321;28;20240;-49
2021/03/08 12:21:07;;;;;;;4.93;4.45;;;29.80;26.90;;;;;;5073178;28;20175;-49
2021/03/08 12:23:33;;;;;;;4.32;3.92;;;30.60;27.60;;;;;;5073179;28;20178;-51
2021/03/08 12:25:59;;;;;;;5.43;4.93;;;31.80;27.20;;;;;;5072804;28;20199;-50
2021/03/08 12:28:24;;;;;;;5.43;4.88;;;30.10;25.90;;;;;;5075499;28;20202;-56
2021/03/08 12:30:50;;;;;;;5.65;5.15;;;27.10;28.30;;;;;;5073561;28;20666;-54
2021/03/08 12:33:15;;;;;;;4.63;4.22;;;24.80;29.80;;;;;;5075612;28;20178;-49
2021/03/08 12:35:41;;;;;;;4.43;4.10;;;24.60;32.50;;;;;;5073539;28;20203;-53
2021/03/08 12:38:06;;;;;;;5.70;4.57;;;25.30;30.80;;;;;;5083631;28;20171;-53
2021/03/08 12:40:32;;;;;;;5.07;4.68;;;26.40;29.70;;;;;;5090727;28;20182;-49
2021/03/08 12:42:57;;;;;;;5.45;4.95;;;28.20;27.90;;;;;;5089617;28;20190;-53
2021/03/08 12:45:24;;;;;;;5.15;4.70;;;28.70;26.60;;;;;;5081539;28;20210;-54
2021/03/08 12:47:50;;;;;;;5.57;5.07;;;28.70;27.00;;;;;;5083450;28;20196;-56
2021/03/08 12:50:16;;;;;;;5.50;5.00;;;28.00;26.50;;;;;;5081623;28;20186;-49
2021/03/08 12:52:42;;;;;;;5.30;4.90;;;26.10;28.40;;;;;;5088060;28;20239;-50
2021/03/08 12:55:08;;;;;;;4.60;4.20;;;25.30;30.70;;;;;;5088224;28;20526;-49
2021/03/08 12:57:34;;;;;;;5.85;5.22;;;25.00;31.40;;;;;;5086976;28;20739;-52
2021/03/08 13:00:00;;;;;;;7.18;5.10;;;24.10;32.10;;;;;;5076672;28;20178;-54